createdAt,value
2018-12-21T00:00:50.507Z,81.16
2018-12-21T00:03:25.486Z,80.83
2018-12-21T00:06:00.493Z,81.19
2018-12-21T00:08:35.254Z,81.32
2018-12-21T00:11:12.204Z,80.56
2018-12-21T00:13:53.469Z,80.70
2018-12-21T00:16:28.803Z,81.37
2018-12-21T00:19:03.577Z,81.31
2018-12-21T00:21:40.586Z,81.45
2018-12-21T00:24:20.038Z,81.19
2018-12-21T00:26:55.316Z,80.75
2018-12-21T00:29:30.388Z,80.97
2018-12-21T00:32:11.158Z,80.51
2018-12-21T00:34:51.844Z,80.76
2018-12-21T00:37:34.732Z,80.55
2018-12-21T00:40:12.016Z,80.95
2018-12-21T00:42:52.699Z,81.00
2018-12-21T00:45:31.288Z,80.59
2018-12-21T00:48:06.691Z,80.55
2018-12-21T00:50:41.662Z,80.83
2018-12-21T00:53:19.380Z,80.42
2018-12-21T00:55:54.073Z,80.19
2018-12-21T00:58:30.928Z,80.17
2018-12-21T01:01:05.827Z,80.21
2018-12-21T01:03:39.535Z,79.85
2018-12-21T01:06:14.508Z,80.36
2018-12-21T01:08:49.144Z,80.88
2018-12-21T01:11:23.998Z,80.69
2018-12-21T01:13:59.016Z,80.85
2018-12-21T01:16:35.825Z,81.34
2018-12-21T01:19:16.136Z,81.39
2018-12-21T01:24:42.204Z,82.00
2018-12-21T01:27:15.485Z,81.76
2018-12-21T01:29:50.319Z,82.21
2018-12-21T01:32:23.401Z,82.43
2018-12-21T01:34:57.284Z,81.88
2018-12-21T01:37:35.122Z,81.97
2018-12-21T01:40:08.203Z,81.86
2018-12-21T01:42:41.422Z,81.86
2018-12-21T01:45:14.466Z,81.97
2018-12-21T01:47:45.802Z,82.13
2018-12-21T01:50:19.141Z,81.90
2018-12-21T01:52:52.432Z,82.10
2018-12-21T01:55:23.678Z,82.42
2018-12-21T01:57:54.966Z,82.05
2018-12-21T02:00:30.637Z,82.50
2018-12-21T02:03:01.854Z,82.09
2018-12-21T02:05:35.284Z,82.09
2018-12-21T02:08:08.440Z,82.16
2018-12-21T02:10:41.517Z,82.21
2018-12-21T02:13:13.002Z,82.21
2018-12-21T02:15:46.272Z,81.79
2018-12-21T02:18:21.241Z,81.92
2018-12-21T02:20:54.134Z,81.92
2018-12-21T02:23:24.872Z,81.73
2018-12-21T02:25:58.433Z,81.90
2018-12-21T02:28:32.887Z,81.61
2018-12-21T02:31:05.902Z,81.91
2018-12-21T02:33:38.966Z,81.98
2018-12-21T02:36:13.680Z,82.07
2018-12-21T02:38:45.188Z,82.50
2018-12-21T02:41:22.406Z,82.62
2018-12-21T02:43:56.159Z,82.00
2018-12-21T02:46:26.831Z,82.13
2018-12-21T02:48:57.449Z,81.93
2018-12-21T02:51:29.716Z,82.07
2018-12-21T02:54:03.378Z,82.01
2018-12-21T02:56:34.749Z,82.44
2018-12-21T02:59:07.970Z,82.25
2018-12-21T03:01:39.481Z,82.41
2018-12-21T03:04:13.092Z,82.37
2018-12-21T03:06:44.320Z,82.36
2018-12-21T03:09:17.589Z,82.84
2018-12-21T03:11:51.482Z,83.11
2018-12-21T03:14:22.862Z,83.10
2018-12-21T03:16:54.148Z,83.42
2018-12-21T03:19:27.316Z,83.51
2018-12-21T03:22:02.233Z,82.90
2018-12-21T03:24:33.582Z,82.93
2018-12-21T03:27:04.898Z,83.31
2018-12-21T03:29:37.929Z,83.60
2018-12-21T03:32:09.072Z,83.42
2018-12-21T03:34:42.586Z,83.48
2018-12-21T03:37:15.676Z,83.04
2018-12-21T03:39:49.558Z,83.08
2018-12-21T03:42:21.256Z,82.74
2018-12-21T03:44:52.176Z,82.44
2018-12-21T03:47:23.243Z,82.14
2018-12-21T03:49:56.632Z,82.30
2018-12-21T03:52:28.011Z,81.62
2018-12-21T03:55:01.302Z,81.26
2018-12-21T03:57:36.982Z,81.24
2018-12-21T04:00:08.641Z,81.23
2018-12-21T04:02:43.850Z,80.69
2018-12-21T04:05:16.605Z,79.91
2018-12-21T04:07:52.455Z,79.73
2018-12-21T04:10:23.288Z,80.03
2018-12-21T04:12:54.530Z,80.23
2018-12-21T04:15:27.853Z,80.38
2018-12-21T04:18:01.375Z,80.04
2018-12-21T04:20:35.571Z,79.69
2018-12-21T04:23:09.363Z,79.70
2018-12-21T04:25:40.532Z,79.84
2018-12-21T04:28:11.564Z,79.78
2018-12-21T04:30:45.053Z,80.06
2018-12-21T04:33:19.024Z,80.16
2018-12-21T04:35:54.846Z,80.23
2018-12-21T04:38:26.182Z,80.61
2018-12-21T04:40:57.155Z,80.57
2018-12-21T04:43:28.282Z,80.59
2018-12-21T04:46:01.647Z,80.84
2018-12-21T04:48:36.818Z,80.95
2018-12-21T04:51:08.138Z,81.03
2018-12-21T04:53:41.409Z,81.21
2018-12-21T04:56:16.349Z,80.68
2018-12-21T04:58:47.905Z,81.07
2018-12-21T05:01:21.102Z,80.75
2018-12-21T05:03:52.587Z,80.65
2018-12-21T05:06:25.603Z,80.73
2018-12-21T05:08:59.427Z,80.35
2018-12-21T05:11:32.539Z,81.03
2018-12-21T05:14:07.887Z,80.72
2018-12-21T05:16:40.918Z,81.21
2018-12-21T05:19:14.531Z,81.54
2018-12-21T05:21:47.686Z,81.24
2018-12-21T05:24:19.212Z,81.12
2018-12-21T05:26:52.628Z,80.96
2018-12-21T05:29:24.002Z,81.18
2018-12-21T05:31:59.458Z,80.64
2018-12-21T05:34:30.998Z,80.86
2018-12-21T05:37:04.426Z,80.41
2018-12-21T05:39:34.816Z,80.55
2018-12-21T05:42:08.495Z,80.43
2018-12-21T05:44:39.830Z,80.70
2018-12-21T05:47:13.038Z,80.47
2018-12-21T05:49:44.529Z,80.44
2018-12-21T05:52:17.998Z,80.04
2018-12-21T05:54:51.829Z,79.75
2018-12-21T05:57:25.638Z,79.79
2018-12-21T05:59:56.194Z,79.59
2018-12-21T06:02:28.319Z,79.39
2018-12-21T06:05:01.733Z,79.60
2018-12-21T06:07:33.961Z,79.66
2018-12-21T06:10:07.275Z,79.71
2018-12-21T06:12:40.215Z,79.84
2018-12-21T06:15:11.626Z,80.18
2018-12-21T06:17:44.787Z,80.13
2018-12-21T06:20:24.208Z,80.58
2018-12-21T06:22:59.443Z,80.08
2018-12-21T06:25:32.546Z,79.57
2018-12-21T06:28:03.636Z,79.73
2018-12-21T06:30:37.011Z,79.87
2018-12-21T06:33:11.890Z,79.43
2018-12-21T06:35:45.737Z,79.46
2018-12-21T06:38:22.662Z,79.64
2018-12-21T06:40:56.529Z,79.53
2018-12-21T06:43:31.323Z,79.92
2018-12-21T06:46:04.431Z,79.97
2018-12-21T06:48:36.133Z,79.10
2018-12-21T06:51:07.618Z,78.90
2018-12-21T06:53:41.120Z,78.98
2018-12-21T06:56:12.663Z,78.84
2018-12-21T06:58:44.439Z,79.54
2018-12-21T07:01:24.114Z,79.39
2018-12-21T07:03:57.316Z,79.14
2018-12-21T07:06:28.705Z,79.07
2018-12-21T07:08:59.627Z,79.34
2018-12-21T07:11:32.706Z,78.63
2018-12-21T07:14:04.057Z,78.75
2018-12-21T07:16:37.272Z,78.92
2018-12-21T07:19:08.605Z,78.58
2018-12-21T07:21:42.086Z,78.69
2018-12-21T07:24:17.080Z,78.71
2018-12-21T07:26:48.415Z,78.28
2018-12-21T07:29:23.924Z,78.62
2018-12-21T07:31:55.449Z,78.08
2018-12-21T07:34:28.770Z,78.10
2018-12-21T07:36:59.614Z,78.32
2018-12-21T07:39:32.347Z,78.40
2018-12-21T07:52:16.785Z,77.92
2018-12-21T07:54:50.454Z,77.59
2018-12-21T07:57:24.190Z,78.07
2018-12-21T07:59:55.441Z,78.47
2018-12-21T08:02:28.882Z,78.19
2018-12-21T08:05:00.185Z,78.20
2018-12-21T08:07:33.788Z,78.40
2018-12-21T08:10:12.961Z,78.78
2018-12-21T08:12:44.317Z,78.96
2018-12-21T08:15:17.626Z,79.02
2018-12-21T08:17:55.647Z,79.51
2018-12-21T08:20:31.407Z,78.44
2018-12-21T08:23:05.096Z,78.55
2018-12-21T08:25:40.835Z,78.93
2018-12-21T08:28:14.627Z,78.60
2018-12-21T08:30:50.815Z,80.15
2018-12-21T08:33:22.086Z,81.00
2018-12-21T08:36:00.277Z,81.88
2018-12-21T08:38:36.234Z,82.57
2018-12-21T08:41:09.348Z,82.89
2018-12-21T08:43:43.841Z,83.26
2018-12-21T08:46:23.675Z,83.48
2018-12-21T08:48:57.131Z,82.56
2018-12-21T08:51:32.680Z,82.73
2018-12-21T08:54:08.675Z,82.35
2018-12-21T08:56:44.465Z,82.27
2018-12-21T08:59:18.653Z,82.50
2018-12-21T09:01:53.627Z,82.21
2018-12-21T09:04:32.115Z,81.98
2018-12-21T09:07:01.682Z,81.98
2018-12-21T09:09:37.443Z,81.49
2018-12-21T09:12:11.224Z,81.71
2018-12-21T09:14:42.899Z,81.42
2018-12-21T09:17:17.498Z,81.99
2018-12-21T09:19:58.000Z,81.58
2018-12-21T09:22:31.907Z,82.11
2018-12-21T09:25:07.590Z,82.47
2018-12-21T09:27:43.593Z,83.04
2018-12-21T09:30:19.019Z,82.80
2018-12-21T09:32:53.459Z,83.32
2018-12-21T09:35:27.990Z,83.58
2018-12-21T09:38:02.736Z,83.49
2018-12-21T09:40:37.125Z,83.28
2018-12-21T09:43:09.109Z,83.78
2018-12-21T09:45:43.699Z,83.62
2018-12-21T09:48:15.794Z,84.54
2018-12-21T09:50:50.002Z,83.58
2018-12-21T09:53:33.743Z,83.32
2018-12-21T09:56:07.749Z,83.84
2018-12-21T09:58:43.949Z,83.59
2018-12-21T10:01:22.158Z,84.33
2018-12-21T10:03:57.733Z,84.38
2018-12-21T10:06:31.324Z,83.39
2018-12-21T10:09:07.046Z,84.42
2018-12-21T10:11:38.506Z,83.76
2018-12-21T10:14:11.625Z,84.29
2018-12-21T10:16:46.750Z,83.40
2018-12-21T10:19:18.240Z,83.54
2018-12-21T10:21:51.550Z,84.20
2018-12-21T10:24:23.432Z,84.37
2018-12-21T10:26:54.310Z,83.71
2018-12-21T10:29:27.751Z,83.71
2018-12-21T10:32:01.681Z,83.24
2018-12-21T10:34:35.192Z,83.25
2018-12-21T10:37:08.405Z,83.06
2018-12-21T10:39:40.299Z,82.55
2018-12-21T10:42:17.648Z,82.56
2018-12-21T10:44:49.210Z,82.95
2018-12-21T10:47:22.533Z,82.79
2018-12-21T10:49:54.265Z,83.46
2018-12-21T10:52:25.806Z,83.56
2018-12-21T10:54:59.913Z,84.30
2018-12-21T10:57:33.788Z,83.37
2018-12-21T11:00:12.217Z,84.01
2018-12-21T11:02:45.621Z,83.52
2018-12-21T11:05:19.144Z,84.13
2018-12-21T11:07:57.537Z,84.44
2018-12-21T11:10:35.187Z,84.93
2018-12-21T11:13:11.261Z,84.79
2018-12-21T11:15:44.997Z,84.78
2018-12-21T11:18:22.904Z,84.86
2018-12-21T11:20:58.880Z,85.34
2018-12-21T11:23:34.269Z,84.05
2018-12-21T11:26:08.265Z,84.41
2018-12-21T11:28:44.207Z,84.01
2018-12-21T11:31:18.101Z,84.00
2018-12-21T11:34:08.630Z,83.89
2018-12-21T11:36:53.881Z,84.10
2018-12-21T11:39:32.701Z,84.06
2018-12-21T11:42:12.721Z,83.71
2018-12-21T11:44:56.915Z,84.07
2018-12-21T11:50:38.853Z,84.05
2018-12-21T11:53:16.666Z,83.45
2018-12-21T11:56:01.697Z,83.09
2018-12-21T11:58:40.986Z,83.76
2018-12-21T12:01:22.143Z,83.78
2018-12-21T12:03:58.682Z,83.18
2018-12-21T12:06:42.162Z,82.82
2018-12-21T12:12:22.323Z,84.30
2018-12-21T12:15:11.581Z,85.30
2018-12-21T12:17:44.873Z,85.35
2018-12-21T12:20:18.721Z,85.38
2018-12-21T12:22:50.085Z,85.58
2018-12-21T12:25:23.371Z,84.26
2018-12-21T12:27:58.194Z,84.48
2018-12-21T12:30:33.131Z,83.63
2018-12-21T12:33:06.126Z,82.80
2018-12-21T12:35:37.658Z,81.31
2018-12-21T12:38:13.000Z,81.82
2018-12-21T12:40:44.371Z,80.40
2018-12-21T12:43:21.713Z,80.89
2018-12-21T12:45:54.914Z,79.53
2018-12-21T12:48:27.814Z,80.08
2018-12-21T12:50:59.302Z,79.25
2018-12-21T12:53:32.739Z,79.46
2018-12-21T12:56:07.845Z,79.94
2018-12-21T12:58:39.274Z,79.33
2018-12-21T13:01:12.545Z,79.42
2018-12-21T13:03:45.555Z,79.51
2018-12-21T13:06:20.342Z,79.44
2018-12-21T13:08:55.304Z,80.14
2018-12-21T13:11:28.155Z,80.19
2018-12-21T13:13:59.523Z,80.34
2018-12-21T13:16:30.609Z,79.94
2018-12-21T13:19:03.858Z,79.52
2018-12-21T13:21:37.589Z,79.57
2018-12-21T13:24:10.525Z,79.21
2018-12-21T13:26:41.811Z,79.43
2018-12-21T13:29:12.950Z,78.94
2018-12-21T13:31:43.971Z,79.37
2018-12-21T13:34:14.900Z,79.11
2018-12-21T13:36:50.323Z,79.20
2018-12-21T13:39:21.781Z,79.26
2018-12-21T13:41:52.771Z,79.15
2018-12-21T13:44:26.666Z,79.66
2018-12-21T13:47:00.342Z,79.92
2018-12-21T13:49:33.234Z,80.62
2018-12-21T13:52:04.629Z,81.01
2018-12-21T13:54:35.634Z,80.62
2018-12-21T13:57:06.966Z,81.15
2018-12-21T13:59:37.893Z,80.60
2018-12-21T14:02:09.084Z,80.98
2018-12-21T14:04:44.475Z,80.44
2018-12-21T14:07:15.724Z,80.19
2018-12-21T14:09:46.875Z,80.87
2018-12-21T14:12:17.813Z,80.57
2018-12-21T14:14:49.497Z,80.59
2018-12-21T14:17:20.903Z,80.90
2018-12-21T14:19:51.986Z,80.49
2018-12-21T14:22:22.665Z,80.34
2018-12-21T14:24:56.092Z,80.98
2018-12-21T14:27:27.282Z,81.56
2018-12-21T14:30:01.156Z,81.62
2018-12-21T14:32:36.654Z,81.82
2018-12-21T14:35:09.765Z,81.46
2018-12-21T14:37:42.686Z,80.90
2018-12-21T14:40:22.043Z,81.74
2018-12-21T14:42:53.133Z,81.32
2018-12-21T14:45:24.434Z,81.41
2018-12-21T14:47:55.614Z,80.91
2018-12-21T14:50:28.793Z,81.50
2018-12-21T14:52:59.917Z,81.28
2018-12-21T14:55:37.402Z,81.18
2018-12-21T14:58:07.434Z,80.99
2018-12-21T15:00:38.800Z,81.12
2018-12-21T15:03:14.477Z,81.29
2018-12-21T15:05:45.823Z,81.49
2018-12-21T15:08:21.498Z,81.60
2018-12-21T15:10:56.396Z,81.40
2018-12-21T15:13:27.824Z,80.93
2018-12-21T15:16:01.069Z,80.93
2018-12-21T15:18:32.380Z,80.63
2018-12-21T15:21:08.025Z,80.94
2018-12-21T15:23:39.305Z,81.16
2018-12-21T15:26:10.387Z,81.91
2018-12-21T15:28:43.836Z,81.29
2018-12-21T15:31:19.775Z,81.11
2018-12-21T15:33:51.351Z,81.34
2018-12-21T15:36:24.390Z,81.23
2018-12-21T15:38:54.959Z,81.46
2018-12-21T15:41:28.305Z,81.56
2018-12-21T15:44:02.901Z,81.48
2018-12-21T15:46:35.817Z,81.08
2018-12-21T15:49:10.896Z,80.66
2018-12-21T15:51:46.524Z,80.24
2018-12-21T15:54:19.511Z,79.84
2018-12-21T15:56:53.175Z,79.85
2018-12-21T15:59:24.329Z,79.54
2018-12-21T16:01:55.362Z,79.73
2018-12-21T16:04:28.874Z,80.17
2018-12-21T16:07:02.866Z,80.41
2018-12-21T16:09:34.360Z,80.93
2018-12-21T16:12:05.618Z,81.14
2018-12-21T16:14:36.800Z,80.67
2018-12-21T16:17:07.709Z,80.33
2018-12-21T16:19:38.704Z,80.13
2018-12-21T16:22:09.964Z,79.70
2018-12-21T16:24:40.887Z,79.55
2018-12-21T16:27:12.391Z,78.90
2018-12-21T16:29:45.727Z,79.09
2018-12-21T16:32:18.830Z,79.16
2018-12-21T16:34:50.097Z,79.25
2018-12-21T16:37:21.212Z,78.62
2018-12-21T16:39:51.966Z,78.93
2018-12-21T16:42:22.939Z,78.66
2018-12-21T16:44:53.869Z,78.19
2018-12-21T16:47:24.847Z,77.99
2018-12-21T16:49:56.154Z,78.32
2018-12-21T16:52:29.318Z,77.71
2018-12-21T16:55:04.200Z,77.71
2018-12-21T16:57:37.309Z,77.47
2018-12-21T17:00:13.299Z,77.83
2018-12-21T17:02:44.757Z,77.20
2018-12-21T17:05:17.974Z,76.97
2018-12-21T17:07:49.283Z,77.04
2018-12-21T17:10:24.819Z,76.78
2018-12-21T17:12:56.246Z,76.12
2018-12-21T17:15:29.415Z,76.03
2018-12-21T17:18:02.492Z,75.87
2018-12-21T17:20:33.907Z,75.86
2018-12-21T17:23:04.795Z,75.85
2018-12-21T17:25:35.789Z,75.79
2018-12-21T17:28:06.773Z,75.38
2018-12-21T17:30:37.289Z,75.53
2018-12-21T17:33:10.825Z,74.99
2018-12-21T17:35:45.531Z,75.82
2018-12-21T17:38:18.639Z,75.71
2018-12-21T17:40:55.538Z,74.64
2018-12-21T17:43:28.608Z,74.56
2018-12-21T17:45:59.950Z,74.82
2018-12-21T17:48:30.911Z,73.48
2018-12-21T17:51:04.245Z,74.10
2018-12-21T17:53:35.579Z,73.47
2018-12-21T17:56:15.422Z,73.67
2018-12-21T17:58:47.777Z,73.34
2018-12-21T18:01:20.903Z,72.92
2018-12-21T18:04:07.936Z,72.62
2018-12-21T18:06:39.167Z,72.44
2018-12-21T18:09:14.753Z,72.67
2018-12-21T18:11:57.030Z,72.28
2018-12-21T18:14:25.447Z,72.37
2018-12-21T18:17:00.866Z,72.59
2018-12-21T18:19:35.209Z,72.18
2018-12-21T18:22:14.852Z,71.38
2018-12-21T18:24:49.257Z,69.99
2018-12-21T18:27:24.666Z,70.72
2018-12-21T18:29:59.041Z,70.04
2018-12-21T18:32:35.738Z,69.82
2018-12-21T18:35:12.289Z,69.89
2018-12-21T18:37:55.359Z,70.37
2018-12-21T18:40:31.088Z,70.55
2018-12-21T18:43:11.090Z,70.29
2018-12-21T18:45:45.297Z,70.09
2018-12-21T18:48:22.211Z,69.53
2018-12-21T18:50:52.878Z,68.92
2018-12-21T18:53:27.053Z,69.02
2018-12-21T18:56:01.448Z,69.63
2018-12-21T18:58:38.383Z,69.02
2018-12-21T19:01:11.484Z,68.97
2018-12-21T19:03:48.245Z,68.48
2018-12-21T19:06:28.393Z,69.00
2018-12-21T19:09:04.518Z,69.50
2018-12-21T19:11:37.969Z,69.87
2018-12-21T19:14:17.546Z,70.13
2018-12-21T19:16:51.771Z,70.57
2018-12-21T19:19:26.582Z,73.44
2018-12-21T19:22:00.345Z,75.33
2018-12-21T19:24:35.281Z,77.49
2018-12-21T19:27:12.278Z,79.13
2018-12-21T19:29:47.171Z,81.59
2018-12-21T19:32:26.562Z,83.39
2018-12-21T19:35:06.446Z,84.82
2018-12-21T19:37:42.078Z,86.82
2018-12-21T19:40:15.905Z,88.77
2018-12-21T19:42:50.843Z,89.03
2018-12-21T19:45:25.882Z,88.40
2018-12-21T19:48:01.102Z,88.31
2018-12-21T19:50:34.771Z,88.40
2018-12-21T19:53:09.643Z,88.13
2018-12-21T19:55:47.509Z,87.92
2018-12-21T19:58:40.427Z,88.72
2018-12-21T20:01:21.064Z,89.05
2018-12-21T20:03:58.293Z,89.31
2018-12-21T20:06:36.144Z,89.31
2018-12-21T20:09:22.744Z,88.42
2018-12-21T20:12:11.462Z,87.23
2018-12-21T20:14:49.441Z,86.25
2018-12-21T20:17:26.535Z,85.54
2018-12-21T20:19:59.799Z,83.40
2018-12-21T20:22:32.127Z,81.98
2018-12-21T20:25:09.931Z,80.62
2018-12-21T20:27:44.805Z,79.67
2018-12-21T20:30:26.515Z,75.52
2018-12-21T20:33:04.738Z,75.55
2018-12-21T20:35:44.872Z,75.62
2018-12-21T20:38:21.433Z,75.74
2018-12-21T20:40:57.808Z,74.41
2018-12-21T20:43:40.147Z,74.45
2018-12-21T20:46:13.834Z,74.28
2018-12-21T20:48:48.426Z,74.01
2018-12-21T20:51:23.520Z,73.01
2018-12-21T20:53:58.767Z,72.73
2018-12-21T20:56:32.159Z,73.51
2018-12-21T20:59:08.300Z,73.61
2018-12-21T21:01:42.625Z,74.49
2018-12-21T21:04:17.203Z,75.63
2018-12-21T21:06:54.156Z,76.60
2018-12-21T21:09:31.740Z,76.39
2018-12-21T21:12:06.680Z,76.88
2018-12-21T21:14:42.482Z,77.36
2018-12-21T21:17:17.283Z,77.44
2018-12-21T21:19:52.073Z,77.16
2018-12-21T21:22:27.097Z,75.79
2018-12-21T21:25:07.255Z,75.84
2018-12-21T21:27:44.762Z,74.28
2018-12-21T21:30:20.051Z,72.10
2018-12-21T21:33:00.291Z,71.71
2018-12-21T21:35:34.014Z,71.08
2018-12-21T21:38:15.226Z,70.31
2018-12-21T21:40:49.447Z,69.75
2018-12-21T21:43:23.210Z,70.12
2018-12-21T21:45:58.219Z,70.62
2018-12-21T21:48:39.647Z,69.58
2018-12-21T21:51:14.819Z,68.96
2018-12-21T21:53:54.332Z,69.34
2018-12-21T21:56:29.698Z,70.08
2018-12-21T21:59:06.567Z,69.67
2018-12-21T22:01:40.444Z,69.99
2018-12-21T22:04:15.495Z,69.81
2018-12-21T22:06:56.164Z,69.96
2018-12-21T22:09:33.381Z,69.58
2018-12-21T22:12:06.959Z,69.90
2018-12-21T22:14:41.819Z,70.43
2018-12-21T22:17:16.653Z,70.79
2018-12-21T22:19:51.680Z,71.87
2018-12-21T22:22:26.272Z,72.19
2018-12-21T22:25:00.021Z,71.96
2018-12-21T22:27:36.938Z,72.74
2018-12-21T22:30:11.875Z,73.42
2018-12-21T22:32:46.614Z,73.60
2018-12-21T22:35:20.609Z,74.25
2018-12-21T22:37:54.642Z,74.51
2018-12-21T22:40:28.734Z,75.75
2018-12-21T22:43:03.539Z,76.29
2018-12-21T22:45:37.791Z,76.27
2018-12-21T22:48:14.675Z,76.03
2018-12-21T22:50:49.825Z,74.83
2018-12-21T22:53:26.785Z,74.98
2018-12-21T22:56:01.654Z,74.16
2018-12-21T22:58:38.420Z,73.74
2018-12-21T23:01:12.582Z,73.07
2018-12-21T23:03:46.530Z,72.46
2018-12-21T23:06:26.826Z,72.10
2018-12-21T23:09:02.133Z,70.64
2018-12-21T23:11:39.197Z,70.31
2018-12-21T23:14:14.121Z,69.23
2018-12-21T23:16:48.853Z,68.37
2018-12-21T23:19:25.719Z,68.59
2018-12-21T23:21:59.856Z,67.74
2018-12-21T23:24:36.890Z,67.61
2018-12-21T23:27:11.781Z,66.64
2018-12-21T23:29:45.714Z,66.01
2018-12-21T23:32:19.598Z,66.42
2018-12-21T23:34:53.680Z,66.56
2018-12-21T23:37:28.457Z,66.66
2018-12-21T23:40:03.559Z,66.12
2018-12-21T23:42:38.386Z,64.92
2018-12-21T23:45:13.219Z,64.15
2018-12-21T23:47:48.195Z,62.83
2018-12-21T23:50:23.167Z,62.78
2018-12-21T23:52:58.090Z,62.89
2018-12-21T23:55:33.124Z,62.17
2018-12-21T23:58:13.790Z,62.83
